sensor_id;sensor_type;location;lat;lon;timestamp;temperature;humidity
9925;DHT22;5001;51.674;7.868;2023-04-30T00:00:01;7.30;1.00
9925;DHT22;5001;51.674;7.868;2023-04-30T00:02:36;7.30;1.00
9925;DHT22;5001;51.674;7.868;2023-04-30T00:05:03;7.10;1.00
9925;DHT22;5001;51.674;7.868;2023-04-30T00:07:30;7.20;1.00
9925;DHT22;5001;51.674;7.868;2023-04-30T00:09:57;7.20;1.00
9925;DHT22;5001;51.674;7.868;2023-04-30T00:12:24;7.10;1.00
9925;DHT22;5001;51.674;7.868;2023-04-30T00:14:52;7.10;1.00
9925;DHT22;5001;51.674;7.868;2023-04-30T00:17:19;7.10;1.00
9925;DHT22;5001;51.674;7.868;2023-04-30T00:19:46;7.00;1.00
9925;DHT22;5001;51.674;7.868;2023-04-30T00:22:13;7.00;1.00
9925;DHT22;5001;51.674;7.868;2023-04-30T00:24:40;7.00;1.00
9925;DHT22;5001;51.674;7.868;2023-04-30T00:27:07;7.00;1.00
9925;DHT22;5001;51.674;7.868;2023-04-30T00:29:34;6.90;1.00
9925;DHT22;5001;51.674;7.868;2023-04-30T00:32:01;7.00;1.00
9925;DHT22;5001;51.674;7.868;2023-04-30T00:34:28;6.90;1.00
9925;DHT22;5001;51.674;7.868;2023-04-30T00:36:55;6.90;1.00
9925;DHT22;5001;51.674;7.868;2023-04-30T00:39:22;6.80;1.00
9925;DHT22;5001;51.674;7.868;2023-04-30T00:41:49;6.90;1.00
9925;DHT22;5001;51.674;7.868;2023-04-30T00:44:16;6.80;1.00
9925;DHT22;5001;51.674;7.868;2023-04-30T00:46:43;6.80;1.00
9925;DHT22;5001;51.674;7.868;2023-04-30T00:49:10;6.80;1.00
9925;DHT22;5001;51.674;7.868;2023-04-30T00:51:39;6.80;1.00
9925;DHT22;5001;51.674;7.868;2023-04-30T00:54:08;6.70;1.00
9925;DHT22;5001;51.674;7.868;2023-04-30T00:56:35;6.70;1.00
9925;DHT22;5001;51.674;7.868;2023-04-30T00:59:02;6.60;1.00
9925;DHT22;5001;51.674;7.868;2023-04-30T01:01:29;6.60;1.00
9925;DHT22;5001;51.674;7.868;2023-04-30T01:03:57;6.50;1.00
9925;DHT22;5001;51.674;7.868;2023-04-30T01:06:25;6.50;1.00
9925;DHT22;5001;51.674;7.868;2023-04-30T01:08:53;6.50;1.00
9925;DHT22;5001;51.674;7.868;2023-04-30T01:11:42;6.40;1.00
9925;DHT22;5001;51.674;7.868;2023-04-30T01:14:22;6.40;1.00
9925;DHT22;5001;51.674;7.868;2023-04-30T01:17:02;6.30;1.00
9925;DHT22;5001;51.674;7.868;2023-04-30T01:19:41;6.20;1.00
9925;DHT22;5001;51.674;7.868;2023-04-30T01:22:13;6.20;1.00
9925;DHT22;5001;51.674;7.868;2023-04-30T01:25:06;6.20;1.00
9925;DHT22;5001;51.674;7.868;2023-04-30T01:30:13;6.20;1.00
9925;DHT22;5001;51.674;7.868;2023-04-30T01:32:41;6.20;1.00
9925;DHT22;5001;51.674;7.868;2023-04-30T01:35:08;6.10;1.00
9925;DHT22;5001;51.674;7.868;2023-04-30T01:38:00;6.10;1.00
9925;DHT22;5001;51.674;7.868;2023-04-30T01:46:30;6.10;1.00
9925;DHT22;5001;51.674;7.868;2023-04-30T01:51:55;6.10;1.00
9925;DHT22;5001;51.674;7.868;2023-04-30T01:57:37;6.10;1.00
9925;DHT22;5001;51.674;7.868;2023-04-30T02:00:08;6.10;1.00
9925;DHT22;5001;51.674;7.868;2023-04-30T02:02:40;6.00;1.00
9925;DHT22;5001;51.674;7.868;2023-04-30T02:05:07;6.00;1.00
9925;DHT22;5001;51.674;7.868;2023-04-30T02:07:44;6.00;1.00
9925;DHT22;5001;51.674;7.868;2023-04-30T02:10:12;6.00;1.00
9925;DHT22;5001;51.674;7.868;2023-04-30T02:12:40;5.90;1.00
9925;DHT22;5001;51.674;7.868;2023-04-30T02:15:08;5.90;1.00
9925;DHT22;5001;51.674;7.868;2023-04-30T02:17:35;5.90;1.00
9925;DHT22;5001;51.674;7.868;2023-04-30T02:20:03;5.80;1.00
9925;DHT22;5001;51.674;7.868;2023-04-30T02:22:30;5.80;1.00
9925;DHT22;5001;51.674;7.868;2023-04-30T02:24:57;5.80;1.00
9925;DHT22;5001;51.674;7.868;2023-04-30T02:27:25;5.80;1.00
9925;DHT22;5001;51.674;7.868;2023-04-30T02:29:52;5.70;1.00
9925;DHT22;5001;51.674;7.868;2023-04-30T02:32:20;5.70;1.00
9925;DHT22;5001;51.674;7.868;2023-04-30T02:34:47;5.70;1.00
9925;DHT22;5001;51.674;7.868;2023-04-30T02:37:15;5.70;1.00
9925;DHT22;5001;51.674;7.868;2023-04-30T02:39:42;5.70;1.00
9925;DHT22;5001;51.674;7.868;2023-04-30T02:42:09;5.60;1.00
9925;DHT22;5001;51.674;7.868;2023-04-30T02:44:36;5.60;1.00
9925;DHT22;5001;51.674;7.868;2023-04-30T02:47:03;5.60;1.00
9925;DHT22;5001;51.674;7.868;2023-04-30T02:49:31;5.50;1.00
9925;DHT22;5001;51.674;7.868;2023-04-30T02:51:58;5.60;1.00
9925;DHT22;5001;51.674;7.868;2023-04-30T02:54:25;5.50;1.00
9925;DHT22;5001;51.674;7.868;2023-04-30T02:56:52;5.60;1.00
9925;DHT22;5001;51.674;7.868;2023-04-30T02:59:19;5.60;1.00
9925;DHT22;5001;51.674;7.868;2023-04-30T03:01:46;5.70;1.00
9925;DHT22;5001;51.674;7.868;2023-04-30T03:04:13;5.60;1.00
9925;DHT22;5001;51.674;7.868;2023-04-30T03:06:40;5.60;1.00
9925;DHT22;5001;51.674;7.868;2023-04-30T03:09:07;5.50;1.00
9925;DHT22;5001;51.674;7.868;2023-04-30T03:11:34;5.50;1.00
9925;DHT22;5001;51.674;7.868;2023-04-30T03:14:03;5.40;1.00
9925;DHT22;5001;51.674;7.868;2023-04-30T03:16:31;5.30;1.00
9925;DHT22;5001;51.674;7.868;2023-04-30T03:18:58;5.30;1.00
9925;DHT22;5001;51.674;7.868;2023-04-30T03:21:25;5.30;1.00
9925;DHT22;5001;51.674;7.868;2023-04-30T03:23:52;5.20;1.00
9925;DHT22;5001;51.674;7.868;2023-04-30T03:26:19;5.30;1.00
9925;DHT22;5001;51.674;7.868;2023-04-30T03:28:47;5.20;1.00
9925;DHT22;5001;51.674;7.868;2023-04-30T03:31:14;5.20;1.00
9925;DHT22;5001;51.674;7.868;2023-04-30T03:33:41;5.20;1.00
9925;DHT22;5001;51.674;7.868;2023-04-30T03:36:08;5.20;1.00
9925;DHT22;5001;51.674;7.868;2023-04-30T03:38:35;5.10;1.00
9925;DHT22;5001;51.674;7.868;2023-04-30T03:41:02;5.10;1.00
9925;DHT22;5001;51.674;7.868;2023-04-30T03:43:29;5.10;1.00
9925;DHT22;5001;51.674;7.868;2023-04-30T03:45:57;5.10;1.00
9925;DHT22;5001;51.674;7.868;2023-04-30T03:48:24;5.10;1.00
9925;DHT22;5001;51.674;7.868;2023-04-30T03:50:52;5.10;1.00
9925;DHT22;5001;51.674;7.868;2023-04-30T03:53:19;5.10;1.00
9925;DHT22;5001;51.674;7.868;2023-04-30T03:55:46;5.10;1.00
9925;DHT22;5001;51.674;7.868;2023-04-30T03:58:13;5.20;1.00
9925;DHT22;5001;51.674;7.868;2023-04-30T04:00:41;5.30;1.00
9925;DHT22;5001;51.674;7.868;2023-04-30T04:03:08;5.40;1.00
9925;DHT22;5001;51.674;7.868;2023-04-30T04:05:35;5.50;1.00
9925;DHT22;5001;51.674;7.868;2023-04-30T04:08:02;5.40;1.00
9925;DHT22;5001;51.674;7.868;2023-04-30T04:10:29;5.40;1.00
9925;DHT22;5001;51.674;7.868;2023-04-30T04:12:56;5.40;1.00
9925;DHT22;5001;51.674;7.868;2023-04-30T04:15:23;5.40;1.00
9925;DHT22;5001;51.674;7.868;2023-04-30T04:17:50;5.40;1.00
9925;DHT22;5001;51.674;7.868;2023-04-30T04:20:17;5.40;1.00
9925;DHT22;5001;51.674;7.868;2023-04-30T04:22:45;5.50;1.00
9925;DHT22;5001;51.674;7.868;2023-04-30T04:25:12;5.50;1.00
9925;DHT22;5001;51.674;7.868;2023-04-30T04:27:41;5.50;1.00
9925;DHT22;5001;51.674;7.868;2023-04-30T04:30:08;5.70;1.00
9925;DHT22;5001;51.674;7.868;2023-04-30T04:32:36;5.80;1.00
9925;DHT22;5001;51.674;7.868;2023-04-30T04:35:13;5.90;1.00
9925;DHT22;5001;51.674;7.868;2023-04-30T04:37:41;6.30;1.00
9925;DHT22;5001;51.674;7.868;2023-04-30T04:40:08;6.80;1.00
9925;DHT22;5001;51.674;7.868;2023-04-30T04:42:37;7.20;1.00
9925;DHT22;5001;51.674;7.868;2023-04-30T04:45:07;7.60;1.00
9925;DHT22;5001;51.674;7.868;2023-04-30T04:47:35;7.90;1.00
9925;DHT22;5001;51.674;7.868;2023-04-30T04:50:04;8.20;1.00
9925;DHT22;5001;51.674;7.868;2023-04-30T04:52:31;8.20;1.00
9925;DHT22;5001;51.674;7.868;2023-04-30T04:54:58;8.10;1.00
9925;DHT22;5001;51.674;7.868;2023-04-30T04:57:25;8.00;1.00
9925;DHT22;5001;51.674;7.868;2023-04-30T04:59:52;7.70;1.00
9925;DHT22;5001;51.674;7.868;2023-04-30T05:02:19;7.60;1.00
9925;DHT22;5001;51.674;7.868;2023-04-30T05:04:49;7.40;1.00
9925;DHT22;5001;51.674;7.868;2023-04-30T05:07:17;7.20;1.00
9925;DHT22;5001;51.674;7.868;2023-04-30T05:09:45;7.10;1.00
9925;DHT22;5001;51.674;7.868;2023-04-30T05:12:13;7.00;1.00
9925;DHT22;5001;51.674;7.868;2023-04-30T05:14:40;7.10;1.00
9925;DHT22;5001;51.674;7.868;2023-04-30T05:17:08;7.10;1.00
9925;DHT22;5001;51.674;7.868;2023-04-30T05:19:38;6.80;1.00
9925;DHT22;5001;51.674;7.868;2023-04-30T05:22:05;6.70;1.00
9925;DHT22;5001;51.674;7.868;2023-04-30T05:24:32;7.70;1.00
9925;DHT22;5001;51.674;7.868;2023-04-30T05:26:59;9.00;1.00
9925;DHT22;5001;51.674;7.868;2023-04-30T05:29:30;10.00;1.00
9925;DHT22;5001;51.674;7.868;2023-04-30T05:31:57;10.70;1.00
9925;DHT22;5001;51.674;7.868;2023-04-30T05:34:24;11.20;1.00
9925;DHT22;5001;51.674;7.868;2023-04-30T05:36:51;11.70;1.00
9925;DHT22;5001;51.674;7.868;2023-04-30T05:39:18;11.90;1.00
9925;DHT22;5001;51.674;7.868;2023-04-30T05:41:45;12.20;1.00
9925;DHT22;5001;51.674;7.868;2023-04-30T05:44:12;13.20;1.00
9925;DHT22;5001;51.674;7.868;2023-04-30T05:46:39;13.90;1.00
9925;DHT22;5001;51.674;7.868;2023-04-30T05:49:06;15.10;1.00
9925;DHT22;5001;51.674;7.868;2023-04-30T05:51:33;16.70;1.00
9925;DHT22;5001;51.674;7.868;2023-04-30T05:54:00;16.70;1.00
9925;DHT22;5001;51.674;7.868;2023-04-30T05:56:27;16.60;1.00
9925;DHT22;5001;51.674;7.868;2023-04-30T05:58:54;16.80;1.00
9925;DHT22;5001;51.674;7.868;2023-04-30T06:01:23;16.20;1.00
9925;DHT22;5001;51.674;7.868;2023-04-30T06:03:50;15.80;1.00
9925;DHT22;5001;51.674;7.868;2023-04-30T06:06:19;15.60;1.00
9925;DHT22;5001;51.674;7.868;2023-04-30T06:08:46;16.70;1.00
9925;DHT22;5001;51.674;7.868;2023-04-30T06:11:14;16.70;1.00
9925;DHT22;5001;51.674;7.868;2023-04-30T06:13:41;17.80;1.00
9925;DHT22;5001;51.674;7.868;2023-04-30T06:16:08;18.70;1.00
9925;DHT22;5001;51.674;7.868;2023-04-30T06:18:35;16.50;1.00
9925;DHT22;5001;51.674;7.868;2023-04-30T06:21:02;16.60;1.00
9925;DHT22;5001;51.674;7.868;2023-04-30T06:23:29;16.60;1.00
9925;DHT22;5001;51.674;7.868;2023-04-30T06:25:56;18.10;1.00
9925;DHT22;5001;51.674;7.868;2023-04-30T06:28:23;18.00;1.00
9925;DHT22;5001;51.674;7.868;2023-04-30T06:30:50;18.60;1.00
9925;DHT22;5001;51.674;7.868;2023-04-30T06:33:17;18.80;1.00
9925;DHT22;5001;51.674;7.868;2023-04-30T06:35:45;19.00;1.00
9925;DHT22;5001;51.674;7.868;2023-04-30T06:38:12;20.70;1.00
9925;DHT22;5001;51.674;7.868;2023-04-30T06:40:39;20.50;1.00
9925;DHT22;5001;51.674;7.868;2023-04-30T06:43:06;20.90;1.00
9925;DHT22;5001;51.674;7.868;2023-04-30T06:45:33;20.90;1.00
9925;DHT22;5001;51.674;7.868;2023-04-30T06:48:01;20.70;1.00
9925;DHT22;5001;51.674;7.868;2023-04-30T06:50:28;20.50;1.00
9925;DHT22;5001;51.674;7.868;2023-04-30T06:52:55;20.10;1.00
9925;DHT22;5001;51.674;7.868;2023-04-30T06:55:22;19.50;1.00
9925;DHT22;5001;51.674;7.868;2023-04-30T06:57:50;20.20;1.00
9925;DHT22;5001;51.674;7.868;2023-04-30T07:00:17;21.20;1.00
9925;DHT22;5001;51.674;7.868;2023-04-30T07:02:44;23.40;1.00
9925;DHT22;5001;51.674;7.868;2023-04-30T07:05:13;24.10;1.00
9925;DHT22;5001;51.674;7.868;2023-04-30T07:07:41;25.50;1.00
9925;DHT22;5001;51.674;7.868;2023-04-30T07:10:09;23.90;1.00
9925;DHT22;5001;51.674;7.868;2023-04-30T07:12:36;20.80;1.00
9925;DHT22;5001;51.674;7.868;2023-04-30T07:15:03;23.10;1.00
9925;DHT22;5001;51.674;7.868;2023-04-30T07:17:30;24.20;1.00
9925;DHT22;5001;51.674;7.868;2023-04-30T07:19:57;23.60;1.00
9925;DHT22;5001;51.674;7.868;2023-04-30T07:22:24;23.80;1.00
9925;DHT22;5001;51.674;7.868;2023-04-30T07:24:52;22.50;1.00
9925;DHT22;5001;51.674;7.868;2023-04-30T07:27:19;21.10;1.00
9925;DHT22;5001;51.674;7.868;2023-04-30T07:29:46;22.70;1.00
9925;DHT22;5001;51.674;7.868;2023-04-30T07:32:13;23.50;1.00
9925;DHT22;5001;51.674;7.868;2023-04-30T07:34:41;24.40;1.00
9925;DHT22;5001;51.674;7.868;2023-04-30T07:37:08;27.60;1.00
9925;DHT22;5001;51.674;7.868;2023-04-30T07:39:35;22.50;1.00
9925;DHT22;5001;51.674;7.868;2023-04-30T07:42:05;20.30;1.00
9925;DHT22;5001;51.674;7.868;2023-04-30T07:44:32;20.90;1.00
9925;DHT22;5001;51.674;7.868;2023-04-30T07:46:59;22.40;1.00
9925;DHT22;5001;51.674;7.868;2023-04-30T07:49:27;24.40;1.00
9925;DHT22;5001;51.674;7.868;2023-04-30T07:51:54;24.80;1.00
9925;DHT22;5001;51.674;7.868;2023-04-30T07:54:21;28.10;1.00
9925;DHT22;5001;51.674;7.868;2023-04-30T07:56:48;25.70;1.00
9925;DHT22;5001;51.674;7.868;2023-04-30T07:59:15;25.80;1.00
9925;DHT22;5001;51.674;7.868;2023-04-30T08:01:43;24.50;1.00
9925;DHT22;5001;51.674;7.868;2023-04-30T08:04:10;27.30;1.00
9925;DHT22;5001;51.674;7.868;2023-04-30T08:06:38;28.10;1.00
9925;DHT22;5001;51.674;7.868;2023-04-30T08:09:05;28.60;1.00
9925;DHT22;5001;51.674;7.868;2023-04-30T08:11:32;29.00;1.00
9925;DHT22;5001;51.674;7.868;2023-04-30T08:13:59;26.90;1.00
9925;DHT22;5001;51.674;7.868;2023-04-30T08:16:26;27.10;1.00
9925;DHT22;5001;51.674;7.868;2023-04-30T08:18:53;28.80;1.00
9925;DHT22;5001;51.674;7.868;2023-04-30T08:21:20;28.50;1.00
9925;DHT22;5001;51.674;7.868;2023-04-30T08:23:47;29.30;1.00
9925;DHT22;5001;51.674;7.868;2023-04-30T08:26:15;28.60;1.00
9925;DHT22;5001;51.674;7.868;2023-04-30T08:28:42;29.30;1.00
9925;DHT22;5001;51.674;7.868;2023-04-30T08:31:09;28.30;1.00
9925;DHT22;5001;51.674;7.868;2023-04-30T08:33:36;29.70;1.00
9925;DHT22;5001;51.674;7.868;2023-04-30T08:36:03;28.40;1.00
9925;DHT22;5001;51.674;7.868;2023-04-30T08:38:31;27.20;1.00
9925;DHT22;5001;51.674;7.868;2023-04-30T08:41:09;28.90;1.00
9925;DHT22;5001;51.674;7.868;2023-04-30T08:43:38;28.20;1.00
9925;DHT22;5001;51.674;7.868;2023-04-30T08:46:05;27.10;1.00
9925;DHT22;5001;51.674;7.868;2023-04-30T08:48:33;27.90;1.00
9925;DHT22;5001;51.674;7.868;2023-04-30T08:51:01;27.40;1.00
9925;DHT22;5001;51.674;7.868;2023-04-30T08:53:29;26.70;1.00
9925;DHT22;5001;51.674;7.868;2023-04-30T08:55:57;27.50;1.00
9925;DHT22;5001;51.674;7.868;2023-04-30T08:58:24;28.90;1.00
9925;DHT22;5001;51.674;7.868;2023-04-30T09:00:51;27.30;1.00
9925;DHT22;5001;51.674;7.868;2023-04-30T09:03:18;27.40;1.00
9925;DHT22;5001;51.674;7.868;2023-04-30T09:05:47;26.50;1.00
9925;DHT22;5001;51.674;7.868;2023-04-30T09:08:18;26.90;1.00
9925;DHT22;5001;51.674;7.868;2023-04-30T09:10:45;29.30;1.00
9925;DHT22;5001;51.674;7.868;2023-04-30T09:13:12;31.60;1.00
9925;DHT22;5001;51.674;7.868;2023-04-30T09:15:40;34.70;1.00
9925;DHT22;5001;51.674;7.868;2023-04-30T09:18:11;31.10;1.00
9925;DHT22;5001;51.674;7.868;2023-04-30T09:20:59;31.00;1.00
9925;DHT22;5001;51.674;7.868;2023-04-30T09:23:30;32.20;1.00
9925;DHT22;5001;51.674;7.868;2023-04-30T09:25:57;32.50;1.00
9925;DHT22;5001;51.674;7.868;2023-04-30T09:28:24;31.40;1.00
9925;DHT22;5001;51.674;7.868;2023-04-30T09:30:56;30.30;1.00
9925;DHT22;5001;51.674;7.868;2023-04-30T09:33:23;30.30;1.00
9925;DHT22;5001;51.674;7.868;2023-04-30T09:35:51;29.90;1.00
9925;DHT22;5001;51.674;7.868;2023-04-30T09:38:31;28.70;1.00
9925;DHT22;5001;51.674;7.868;2023-04-30T09:40:59;29.10;1.00
9925;DHT22;5001;51.674;7.868;2023-04-30T09:43:28;28.60;1.00
9925;DHT22;5001;51.674;7.868;2023-04-30T09:45:57;29.50;1.00
9925;DHT22;5001;51.674;7.868;2023-04-30T09:48:26;28.80;1.00
9925;DHT22;5001;51.674;7.868;2023-04-30T09:50:56;28.30;1.00
9925;DHT22;5001;51.674;7.868;2023-04-30T09:53:23;29.10;1.00
9925;DHT22;5001;51.674;7.868;2023-04-30T09:55:50;28.30;1.00
9925;DHT22;5001;51.674;7.868;2023-04-30T09:58:18;28.80;1.00
9925;DHT22;5001;51.674;7.868;2023-04-30T10:00:46;28.80;1.00
9925;DHT22;5001;51.674;7.868;2023-04-30T10:03:15;27.40;1.00
9925;DHT22;5001;51.674;7.868;2023-04-30T10:05:44;26.60;1.00
9925;DHT22;5001;51.674;7.868;2023-04-30T10:08:35;24.80;1.00
9925;DHT22;5001;51.674;7.868;2023-04-30T10:11:07;24.30;1.00
9925;DHT22;5001;51.674;7.868;2023-04-30T10:13:42;24.40;1.00
9925;DHT22;5001;51.674;7.868;2023-04-30T10:16:52;26.30;1.00
9925;DHT22;5001;51.674;7.868;2023-04-30T10:19:24;27.60;1.00
9925;DHT22;5001;51.674;7.868;2023-04-30T10:21:51;26.00;1.00
9925;DHT22;5001;51.674;7.868;2023-04-30T10:24:19;25.30;1.00
9925;DHT22;5001;51.674;7.868;2023-04-30T10:26:48;25.80;1.00
9925;DHT22;5001;51.674;7.868;2023-04-30T10:29:16;24.00;1.00
9925;DHT22;5001;51.674;7.868;2023-04-30T10:31:48;22.90;1.00
9925;DHT22;5001;51.674;7.868;2023-04-30T10:37:16;24.00;1.00
9925;DHT22;5001;51.674;7.868;2023-04-30T10:39:46;23.40;1.00
9925;DHT22;5001;51.674;7.868;2023-04-30T10:42:13;23.60;1.00
9925;DHT22;5001;51.674;7.868;2023-04-30T10:44:40;22.70;1.00
9925;DHT22;5001;51.674;7.868;2023-04-30T10:47:07;22.90;1.00
9925;DHT22;5001;51.674;7.868;2023-04-30T10:49:35;23.40;1.00
9925;DHT22;5001;51.674;7.868;2023-04-30T10:52:03;23.70;1.00
9925;DHT22;5001;51.674;7.868;2023-04-30T10:54:32;26.30;1.00
9925;DHT22;5001;51.674;7.868;2023-04-30T10:59:38;24.30;1.00
9925;DHT22;5001;51.674;7.868;2023-04-30T11:02:10;23.40;1.00
9925;DHT22;5001;51.674;7.868;2023-04-30T11:07:57;23.50;1.00
9925;DHT22;5001;51.674;7.868;2023-04-30T11:10:27;23.90;1.00
9925;DHT22;5001;51.674;7.868;2023-04-30T11:12:54;23.50;1.00
9925;DHT22;5001;51.674;7.868;2023-04-30T11:15:26;24.60;1.00
9925;DHT22;5001;51.674;7.868;2023-04-30T11:17:57;25.00;1.00
9925;DHT22;5001;51.674;7.868;2023-04-30T11:20:25;24.50;1.00
9925;DHT22;5001;51.674;7.868;2023-04-30T11:23:10;24.80;1.00
9925;DHT22;5001;51.674;7.868;2023-04-30T11:25:40;24.10;1.00
9925;DHT22;5001;51.674;7.868;2023-04-30T11:28:33;24.30;1.00
9925;DHT22;5001;51.674;7.868;2023-04-30T11:31:01;24.00;1.00
9925;DHT22;5001;51.674;7.868;2023-04-30T11:33:30;23.90;1.00
9925;DHT22;5001;51.674;7.868;2023-04-30T11:35:58;24.40;1.00
9925;DHT22;5001;51.674;7.868;2023-04-30T11:38:33;22.80;1.00
9925;DHT22;5001;51.674;7.868;2023-04-30T11:41:02;21.90;1.00
9925;DHT22;5001;51.674;7.868;2023-04-30T11:43:31;21.60;1.00
9925;DHT22;5001;51.674;7.868;2023-04-30T11:46:14;21.40;1.00
9925;DHT22;5001;51.674;7.868;2023-04-30T11:48:44;21.10;1.00
9925;DHT22;5001;51.674;7.868;2023-04-30T11:51:19;21.30;1.00
9925;DHT22;5001;51.674;7.868;2023-04-30T11:53:49;22.10;1.00
9925;DHT22;5001;51.674;7.868;2023-04-30T11:56:19;22.00;1.00
9925;DHT22;5001;51.674;7.868;2023-04-30T11:58:48;22.60;1.00
9925;DHT22;5001;51.674;7.868;2023-04-30T12:01:16;21.70;1.00
9925;DHT22;5001;51.674;7.868;2023-04-30T12:03:46;20.90;1.00
9925;DHT22;5001;51.674;7.868;2023-04-30T12:06:27;22.10;1.00
9925;DHT22;5001;51.674;7.868;2023-04-30T12:08:56;21.50;1.00
9925;DHT22;5001;51.674;7.868;2023-04-30T12:11:26;21.00;1.00
9925;DHT22;5001;51.674;7.868;2023-04-30T12:13:55;21.20;1.00
9925;DHT22;5001;51.674;7.868;2023-04-30T12:16:23;21.50;1.00
9925;DHT22;5001;51.674;7.868;2023-04-30T12:18:51;20.40;1.00
9925;DHT22;5001;51.674;7.868;2023-04-30T12:21:21;20.40;1.00
9925;DHT22;5001;51.674;7.868;2023-04-30T12:23:48;20.40;1.00
9925;DHT22;5001;51.674;7.868;2023-04-30T12:26:16;20.10;1.00
9925;DHT22;5001;51.674;7.868;2023-04-30T12:28:46;20.80;1.00
9925;DHT22;5001;51.674;7.868;2023-04-30T12:31:16;21.60;1.00
9925;DHT22;5001;51.674;7.868;2023-04-30T12:33:43;20.80;1.00
9925;DHT22;5001;51.674;7.868;2023-04-30T12:36:18;20.40;1.00
9925;DHT22;5001;51.674;7.868;2023-04-30T12:38:46;20.10;1.00
9925;DHT22;5001;51.674;7.868;2023-04-30T12:41:13;20.30;1.00
9925;DHT22;5001;51.674;7.868;2023-04-30T12:43:41;19.60;1.00
9925;DHT22;5001;51.674;7.868;2023-04-30T12:46:08;19.30;1.00
9925;DHT22;5001;51.674;7.868;2023-04-30T12:48:44;19.40;1.00
9925;DHT22;5001;51.674;7.868;2023-04-30T12:51:11;19.10;1.00
9925;DHT22;5001;51.674;7.868;2023-04-30T12:53:45;19.50;1.00
9925;DHT22;5001;51.674;7.868;2023-04-30T12:56:14;19.70;1.00
9925;DHT22;5001;51.674;7.868;2023-04-30T12:58:43;19.20;1.00
9925;DHT22;5001;51.674;7.868;2023-04-30T13:01:24;19.00;1.00
9925;DHT22;5001;51.674;7.868;2023-04-30T13:03:51;19.00;1.00
9925;DHT22;5001;51.674;7.868;2023-04-30T13:06:22;18.90;1.00
9925;DHT22;5001;51.674;7.868;2023-04-30T13:08:49;18.90;1.00
9925;DHT22;5001;51.674;7.868;2023-04-30T13:11:22;19.30;1.00
9925;DHT22;5001;51.674;7.868;2023-04-30T13:13:49;19.80;1.00
9925;DHT22;5001;51.674;7.868;2023-04-30T13:16:16;19.70;1.00
9925;DHT22;5001;51.674;7.868;2023-04-30T13:18:43;19.30;1.00
9925;DHT22;5001;51.674;7.868;2023-04-30T13:21:10;18.60;1.00
9925;DHT22;5001;51.674;7.868;2023-04-30T13:23:38;18.30;1.00
9925;DHT22;5001;51.674;7.868;2023-04-30T13:26:17;18.40;1.00
9925;DHT22;5001;51.674;7.868;2023-04-30T13:28:44;18.70;1.00
9925;DHT22;5001;51.674;7.868;2023-04-30T13:31:11;18.40;1.00
9925;DHT22;5001;51.674;7.868;2023-04-30T13:33:38;18.30;1.00
9925;DHT22;5001;51.674;7.868;2023-04-30T13:36:05;18.10;1.00
9925;DHT22;5001;51.674;7.868;2023-04-30T13:38:33;18.00;1.00
9925;DHT22;5001;51.674;7.868;2023-04-30T13:41:00;18.40;1.00
9925;DHT22;5001;51.674;7.868;2023-04-30T13:43:27;19.00;1.00
9925;DHT22;5001;51.674;7.868;2023-04-30T13:45:54;19.30;1.00
9925;DHT22;5001;51.674;7.868;2023-04-30T13:48:21;18.80;1.00
9925;DHT22;5001;51.674;7.868;2023-04-30T13:50:48;18.50;1.00
9925;DHT22;5001;51.674;7.868;2023-04-30T13:53:15;18.20;1.00
9925;DHT22;5001;51.674;7.868;2023-04-30T13:55:42;18.40;1.00
9925;DHT22;5001;51.674;7.868;2023-04-30T13:58:09;18.50;1.00
9925;DHT22;5001;51.674;7.868;2023-04-30T14:00:36;18.80;1.00
9925;DHT22;5001;51.674;7.868;2023-04-30T14:03:03;19.20;1.00
9925;DHT22;5001;51.674;7.868;2023-04-30T14:05:35;18.80;1.00
9925;DHT22;5001;51.674;7.868;2023-04-30T14:08:02;18.30;1.00
9925;DHT22;5001;51.674;7.868;2023-04-30T14:10:29;18.20;1.00
9925;DHT22;5001;51.674;7.868;2023-04-30T14:12:57;18.00;1.00
9925;DHT22;5001;51.674;7.868;2023-04-30T14:15:24;17.70;1.00
9925;DHT22;5001;51.674;7.868;2023-04-30T14:17:58;17.60;1.00
9925;DHT22;5001;51.674;7.868;2023-04-30T14:20:26;17.80;1.00
9925;DHT22;5001;51.674;7.868;2023-04-30T14:22:53;17.80;1.00
9925;DHT22;5001;51.674;7.868;2023-04-30T14:25:20;18.10;1.00
9925;DHT22;5001;51.674;7.868;2023-04-30T14:27:47;18.40;1.00
9925;DHT22;5001;51.674;7.868;2023-04-30T14:30:14;18.50;1.00
9925;DHT22;5001;51.674;7.868;2023-04-30T14:32:41;18.50;1.00
9925;DHT22;5001;51.674;7.868;2023-04-30T14:35:08;18.00;1.00
9925;DHT22;5001;51.674;7.868;2023-04-30T14:37:35;18.10;1.00
9925;DHT22;5001;51.674;7.868;2023-04-30T14:40:03;18.10;1.00
9925;DHT22;5001;51.674;7.868;2023-04-30T14:42:32;18.10;1.00
9925;DHT22;5001;51.674;7.868;2023-04-30T14:44:59;18.10;1.00
9925;DHT22;5001;51.674;7.868;2023-04-30T14:47:27;18.50;1.00
9925;DHT22;5001;51.674;7.868;2023-04-30T14:49:54;18.80;1.00
9925;DHT22;5001;51.674;7.868;2023-04-30T14:52:24;18.60;1.00
9925;DHT22;5001;51.674;7.868;2023-04-30T14:54:51;18.50;1.00
9925;DHT22;5001;51.674;7.868;2023-04-30T14:57:18;18.10;1.00
9925;DHT22;5001;51.674;7.868;2023-04-30T14:59:48;18.10;1.00
9925;DHT22;5001;51.674;7.868;2023-04-30T15:02:15;18.10;1.00
9925;DHT22;5001;51.674;7.868;2023-04-30T15:04:42;18.20;1.00
9925;DHT22;5001;51.674;7.868;2023-04-30T15:07:12;18.30;1.00
9925;DHT22;5001;51.674;7.868;2023-04-30T15:09:39;18.10;1.00
9925;DHT22;5001;51.674;7.868;2023-04-30T15:12:06;18.00;1.00
9925;DHT22;5001;51.674;7.868;2023-04-30T15:14:32;17.70;1.00
9925;DHT22;5001;51.674;7.868;2023-04-30T15:16:59;17.70;1.00
9925;DHT22;5001;51.674;7.868;2023-04-30T15:19:27;17.50;1.00
9925;DHT22;5001;51.674;7.868;2023-04-30T15:21:55;17.60;1.00
9925;DHT22;5001;51.674;7.868;2023-04-30T15:24:22;17.50;1.00
9925;DHT22;5001;51.674;7.868;2023-04-30T15:26:49;17.60;1.00
9925;DHT22;5001;51.674;7.868;2023-04-30T15:29:18;17.80;1.00
9925;DHT22;5001;51.674;7.868;2023-04-30T15:31:45;17.50;1.00
9925;DHT22;5001;51.674;7.868;2023-04-30T15:34:12;17.50;1.00
9925;DHT22;5001;51.674;7.868;2023-04-30T15:36:39;17.60;1.00
9925;DHT22;5001;51.674;7.868;2023-04-30T15:39:06;17.70;1.00
9925;DHT22;5001;51.674;7.868;2023-04-30T15:41:33;17.80;1.00
9925;DHT22;5001;51.674;7.868;2023-04-30T15:44:00;17.90;1.00
9925;DHT22;5001;51.674;7.868;2023-04-30T15:46:27;18.10;1.00
9925;DHT22;5001;51.674;7.868;2023-04-30T15:48:54;17.80;1.00
9925;DHT22;5001;51.674;7.868;2023-04-30T15:51:21;17.80;1.00
9925;DHT22;5001;51.674;7.868;2023-04-30T15:53:48;17.70;1.00
9925;DHT22;5001;51.674;7.868;2023-04-30T15:56:15;17.70;1.00
9925;DHT22;5001;51.674;7.868;2023-04-30T15:58:44;17.70;1.00
9925;DHT22;5001;51.674;7.868;2023-04-30T16:01:11;17.80;1.00
9925;DHT22;5001;51.674;7.868;2023-04-30T16:03:38;17.90;1.00
9925;DHT22;5001;51.674;7.868;2023-04-30T16:06:05;18.00;1.00
9925;DHT22;5001;51.674;7.868;2023-04-30T16:08:32;17.90;1.00
9925;DHT22;5001;51.674;7.868;2023-04-30T16:10:59;17.80;1.00
9925;DHT22;5001;51.674;7.868;2023-04-30T16:13:27;17.80;1.00
9925;DHT22;5001;51.674;7.868;2023-04-30T16:15:54;17.80;1.00
9925;DHT22;5001;51.674;7.868;2023-04-30T16:18:21;17.80;1.00
9925;DHT22;5001;51.674;7.868;2023-04-30T16:20:48;17.90;1.00
9925;DHT22;5001;51.674;7.868;2023-04-30T16:23:15;17.90;1.00
9925;DHT22;5001;51.674;7.868;2023-04-30T16:25:42;17.90;1.00
9925;DHT22;5001;51.674;7.868;2023-04-30T16:28:09;17.80;1.00
9925;DHT22;5001;51.674;7.868;2023-04-30T16:30:36;17.60;1.00
9925;DHT22;5001;51.674;7.868;2023-04-30T16:33:03;17.60;1.00
9925;DHT22;5001;51.674;7.868;2023-04-30T16:35:30;17.40;1.00
9925;DHT22;5001;51.674;7.868;2023-04-30T16:37:57;17.30;1.00
9925;DHT22;5001;51.674;7.868;2023-04-30T16:40:24;17.30;1.00
9925;DHT22;5001;51.674;7.868;2023-04-30T16:42:51;17.30;1.00
9925;DHT22;5001;51.674;7.868;2023-04-30T16:45:18;17.20;1.00
9925;DHT22;5001;51.674;7.868;2023-04-30T16:47:45;17.10;1.00
9925;DHT22;5001;51.674;7.868;2023-04-30T16:50:14;17.10;1.00
9925;DHT22;5001;51.674;7.868;2023-04-30T16:52:41;17.20;1.00